EPSC/SZZ METAR and TAF weather

Enter ICAO airport designator
Station Type Date Time Source
EPSC METAR 2021/09/24 06:00 UTC NOAA

EPSC 240600Z 25009KT 210V270 9999 FEW035 BKN040 12/09 Q1008


Station Type Date Time Source
EPSC Decoded METAR 2021/09/24 06:00 UTC NOAA

Szczecin, Poland (EPSC) 53-24N 014-37E 3M
Sep 24, 2021 - 02:00 AM EDT / 2021.09.24 0600 UTC
Wind: from the WSW (250 degrees) at 10 MPH (9 KT) (direction variable):0
Visibility: greater than 7 mile(s):0
Sky conditions: mostly cloudy
Temperature: 53 F (12 C)
Dew Point: 48 F (9 C)
Relative Humidity: 81%
Pressure (altimeter): 29.77 in. Hg (1008 hPa)
ob: EPSC 240600Z 25009KT 210V270 9999 FEW035 BKN040 12/09 Q1008
cycle: 6

Station Type Date Time Source
EPSC TAF 2021/09/24 06:33 UTC NOAA

TAF EPSC 240530Z 2406/2506 27013KT 9999 BKN030
TEMPO 2406/2415 30016G30KT
TEMPO 2417/2506 BKN013

Example: see airport list